createdAt,value
2023-01-06T00:02:14.464Z,79.50
2023-01-06T00:05:03.055Z,79.40
2023-01-06T00:07:52.446Z,79.50
2023-01-06T00:10:41.099Z,78.90
2023-01-06T00:13:30.409Z,78.50
2023-01-06T00:16:20.986Z,78.30
2023-01-06T00:19:12.994Z,78.60
2023-01-06T00:22:01.469Z,78.30
2023-01-06T00:24:50.054Z,78.20
2023-01-06T00:27:38.978Z,78.40
2023-01-06T00:30:27.976Z,78.30
2023-01-06T00:33:16.651Z,78.40
2023-01-06T00:36:08.152Z,78.40
2023-01-06T00:38:56.727Z,79.30
2023-01-06T00:42:02.456Z,79.10
2023-01-06T00:44:51.059Z,78.40
2023-01-06T00:47:39.590Z,78.40
2023-01-06T00:50:28.194Z,78.30
2023-01-06T00:53:18.034Z,78.20
2023-01-06T00:56:07.772Z,78.30
2023-01-06T00:58:56.242Z,78.00
2023-01-06T01:01:47.873Z,77.50
2023-01-06T01:04:37.150Z,77.40
2023-01-06T01:07:25.743Z,77.20
2023-01-06T01:10:15.643Z,77.40
2023-01-06T01:13:04.161Z,77.80
2023-01-06T01:15:52.771Z,78.20
2023-01-06T01:18:41.359Z,77.70
2023-01-06T01:21:29.846Z,77.50
2023-01-06T01:24:19.307Z,77.10
2023-01-06T01:27:09.393Z,76.70
2023-01-06T01:29:57.999Z,76.90
2023-01-06T01:32:46.580Z,76.70
2023-01-06T01:35:35.186Z,77.20
2023-01-06T01:38:23.778Z,78.20
2023-01-06T01:41:15.927Z,78.90
2023-01-06T01:44:44.233Z,79.40
2023-01-06T01:47:46.644Z,79.30
2023-01-06T01:50:38.643Z,79.40
2023-01-06T01:53:28.973Z,79.40
2023-01-06T01:56:22.477Z,79.40
2023-01-06T01:59:16.950Z,79.40
2023-01-06T02:02:05.829Z,79.40
2023-01-06T02:04:56.120Z,79.30
2023-01-06T02:07:44.743Z,79.30
2023-01-06T02:10:33.399Z,79.30
2023-01-06T02:13:22.123Z,79.40
2023-01-06T02:16:20.835Z,79.10
2023-01-06T02:19:22.331Z,78.50
2023-01-06T02:22:31.283Z,78.50
2023-01-06T02:25:43.751Z,79.30
2023-01-06T02:28:57.794Z,79.70
2023-01-06T02:32:14.746Z,80.90
2023-01-06T02:35:15.761Z,81.00
2023-01-06T02:38:18.031Z,81.10
2023-01-06T02:41:16.820Z,81.60
2023-01-06T02:44:11.459Z,82.00
2023-01-06T02:47:11.873Z,82.30
2023-01-06T02:50:12.990Z,82.80
2023-01-06T02:53:09.176Z,83.90
2023-01-06T02:55:59.363Z,85.10
2023-01-06T02:58:54.192Z,84.80
2023-01-06T03:01:46.482Z,83.90
2023-01-06T03:04:39.239Z,83.60
2023-01-06T03:07:30.665Z,83.70
2023-01-06T03:10:23.168Z,83.80
2023-01-06T03:13:18.161Z,83.70
2023-01-06T03:16:07.693Z,83.60
2023-01-06T03:18:57.213Z,83.50
2023-01-06T03:21:51.966Z,82.70
2023-01-06T03:24:46.306Z,82.10
2023-01-06T03:27:36.397Z,82.50
2023-01-06T03:30:28.741Z,82.00
2023-01-06T03:33:25.778Z,81.80
2023-01-06T03:36:23.070Z,81.80
2023-01-06T03:39:17.421Z,82.40
2023-01-06T03:42:40.237Z,83.20
2023-01-06T03:45:41.569Z,84.10
2023-01-06T03:48:40.736Z,84.70
2023-01-06T03:51:42.327Z,85.00
2023-01-06T03:54:42.436Z,84.80
2023-01-06T03:57:37.142Z,85.00
2023-01-06T04:00:32.629Z,85.20
2023-01-06T04:03:26.933Z,85.50
2023-01-06T04:06:16.131Z,85.20
2023-01-06T04:09:05.343Z,85.50
2023-01-06T04:12:14.086Z,86.00
2023-01-06T04:15:04.086Z,85.80
2023-01-06T04:17:53.694Z,85.10
2023-01-06T04:20:42.862Z,85.30
2023-01-06T04:23:41.966Z,85.10
2023-01-06T04:26:30.629Z,84.90
2023-01-06T04:29:19.183Z,84.40
2023-01-06T04:32:09.389Z,83.80
2023-01-06T04:34:58.041Z,85.00
2023-01-06T04:37:46.688Z,85.30
2023-01-06T04:40:35.219Z,85.50
2023-01-06T04:43:24.179Z,86.80
2023-01-06T04:46:12.895Z,87.60
2023-01-06T04:49:02.735Z,87.60
2023-01-06T04:51:51.269Z,87.60
2023-01-06T04:54:39.772Z,87.60
2023-01-06T04:57:28.255Z,87.60
2023-01-06T05:00:17.599Z,88.00
2023-01-06T05:03:08.911Z,87.60
2023-01-06T05:06:02.309Z,87.60
2023-01-06T05:08:53.551Z,88.20
2023-01-06T05:11:41.993Z,88.60
2023-01-06T05:14:30.426Z,89.70
2023-01-06T05:17:18.944Z,90.40
2023-01-06T05:20:08.607Z,90.80
2023-01-06T05:22:58.448Z,90.80
2023-01-06T05:25:47.337Z,90.90
2023-01-06T05:28:35.827Z,90.80
2023-01-06T05:31:26.778Z,90.50
2023-01-06T05:34:15.534Z,90.60
2023-01-06T05:37:06.758Z,90.60
2023-01-06T05:39:56.590Z,90.80
2023-01-06T05:42:45.160Z,90.60
2023-01-06T05:45:33.639Z,90.70
2023-01-06T05:48:25.159Z,90.20
2023-01-06T05:51:15.659Z,90.20
2023-01-06T05:54:08.146Z,90.30
2023-01-06T05:57:00.541Z,90.20
2023-01-06T05:59:49.079Z,90.10
2023-01-06T06:02:37.632Z,90.00
2023-01-06T06:05:26.138Z,89.10
2023-01-06T06:08:14.671Z,88.40
2023-01-06T06:11:04.720Z,87.70
2023-01-06T06:13:56.546Z,87.60
2023-01-06T06:16:45.076Z,87.90
2023-01-06T06:19:33.626Z,87.60
2023-01-06T06:22:22.104Z,87.40
2023-01-06T06:25:11.089Z,86.70
2023-01-06T06:28:00.081Z,86.60
2023-01-06T06:30:51.123Z,86.80
2023-01-06T06:33:40.213Z,87.60
2023-01-06T06:36:30.930Z,87.50
2023-01-06T06:39:20.188Z,87.60
2023-01-06T06:42:08.712Z,87.60
2023-01-06T06:44:57.177Z,87.40
2023-01-06T06:47:47.028Z,86.70
2023-01-06T06:50:35.559Z,87.50
2023-01-06T06:53:24.177Z,87.50
2023-01-06T06:56:14.048Z,87.50
2023-01-06T06:59:02.648Z,87.50
2023-01-06T07:01:51.327Z,87.30
2023-01-06T07:04:41.221Z,87.40
2023-01-06T07:07:29.866Z,86.70
2023-01-06T07:10:18.519Z,86.10
2023-01-06T07:13:07.517Z,86.40
2023-01-06T07:15:56.035Z,87.40
2023-01-06T07:18:44.864Z,85.80
2023-01-06T07:21:34.804Z,85.40
2023-01-06T07:24:24.670Z,85.60
2023-01-06T07:27:13.189Z,85.30
2023-01-06T07:30:02.093Z,85.80
2023-01-06T07:32:53.256Z,86.10
2023-01-06T07:35:41.836Z,86.50
2023-01-06T07:38:34.795Z,86.30
2023-01-06T07:41:23.525Z,85.20
2023-01-06T07:44:12.182Z,84.60
2023-01-06T07:47:00.758Z,84.00
2023-01-06T07:49:49.448Z,83.50
2023-01-06T07:52:38.209Z,83.50
2023-01-06T07:55:28.382Z,83.00
2023-01-06T07:58:17.365Z,82.30
2023-01-06T08:01:09.634Z,80.90
2023-01-06T08:03:58.204Z,80.50
2023-01-06T08:06:46.768Z,78.80
2023-01-06T08:09:35.620Z,77.10
2023-01-06T08:12:25.638Z,77.70
2023-01-06T08:15:14.202Z,77.80
2023-01-06T08:18:02.719Z,78.20
2023-01-06T08:20:51.179Z,76.20
2023-01-06T08:23:39.972Z,73.30
2023-01-06T08:26:28.426Z,72.00
2023-01-06T08:29:18.510Z,70.20
2023-01-06T08:32:10.720Z,69.20
2023-01-06T08:34:59.681Z,70.70
2023-01-06T08:37:48.186Z,69.20
2023-01-06T08:40:36.801Z,70.10
2023-01-06T08:43:26.198Z,68.00
2023-01-06T08:46:18.001Z,69.00
2023-01-06T08:49:06.627Z,69.10
2023-01-06T08:51:55.188Z,69.10
2023-01-06T08:54:43.915Z,69.10
2023-01-06T08:57:32.499Z,69.60
2023-01-06T09:00:21.209Z,69.00
2023-01-06T09:03:11.466Z,70.00
2023-01-06T09:06:00.244Z,69.70
2023-01-06T09:08:49.599Z,69.20
2023-01-06T09:11:38.488Z,70.30
2023-01-06T09:14:27.049Z,70.10
2023-01-06T09:17:15.588Z,70.40
2023-01-06T09:20:06.351Z,70.40
2023-01-06T09:22:54.883Z,69.70
2023-01-06T09:25:43.418Z,70.00
2023-01-06T09:28:33.536Z,70.60
2023-01-06T09:31:22.215Z,69.10
2023-01-06T09:34:10.736Z,69.20
2023-01-06T09:37:00.679Z,69.10
2023-01-06T09:39:49.436Z,69.00
2023-01-06T09:42:52.472Z,68.20
2023-01-06T09:45:45.423Z,68.90
2023-01-06T09:48:38.193Z,68.00
2023-01-06T09:51:28.939Z,68.50
2023-01-06T09:54:22.863Z,67.10
2023-01-06T09:57:16.839Z,66.70
2023-01-06T10:00:09.156Z,67.10
2023-01-06T10:02:58.080Z,66.90
2023-01-06T10:05:58.365Z,66.90
2023-01-06T10:08:55.722Z,67.90
2023-01-06T10:11:58.031Z,67.10
2023-01-06T10:14:56.557Z,67.30
2023-01-06T10:17:59.577Z,66.20
2023-01-06T10:21:00.993Z,66.30
2023-01-06T10:24:09.461Z,66.90
2023-01-06T10:27:00.392Z,66.60
2023-01-06T10:29:52.330Z,65.50
2023-01-06T10:32:42.826Z,66.10
2023-01-06T10:35:32.336Z,66.30
2023-01-06T10:38:25.104Z,67.90
2023-01-06T10:41:21.381Z,68.20
2023-01-06T10:44:12.818Z,67.80
2023-01-06T10:47:01.726Z,66.70
2023-01-06T10:49:50.322Z,64.60
2023-01-06T10:52:40.516Z,64.70
2023-01-06T10:55:41.776Z,65.30
2023-01-06T10:58:36.674Z,65.80
2023-01-06T11:01:29.004Z,65.50
2023-01-06T11:04:19.549Z,64.30
2023-01-06T11:07:11.245Z,64.70
2023-01-06T11:10:00.525Z,65.60
2023-01-06T11:12:49.270Z,65.60
2023-01-06T11:15:41.141Z,65.60
2023-01-06T11:18:32.661Z,66.40
2023-01-06T11:21:21.491Z,66.30
2023-01-06T11:24:28.541Z,66.90
2023-01-06T11:27:18.315Z,65.50
2023-01-06T11:30:22.484Z,66.00
2023-01-06T11:33:18.682Z,67.00
2023-01-06T11:36:14.303Z,67.00
2023-01-06T11:39:04.938Z,66.60
2023-01-06T11:41:55.682Z,66.70
2023-01-06T11:44:45.359Z,65.00
2023-01-06T11:47:35.005Z,64.70
2023-01-06T11:50:23.971Z,65.20
2023-01-06T11:53:19.305Z,63.80
2023-01-06T11:56:17.926Z,64.40
2023-01-06T11:59:11.759Z,63.80
2023-01-06T12:02:01.119Z,63.20
2023-01-06T12:04:53.002Z,63.60
2023-01-06T12:07:49.291Z,63.10
2023-01-06T12:10:41.804Z,62.70
2023-01-06T12:13:44.172Z,62.80
2023-01-06T12:16:42.793Z,63.70
2023-01-06T12:19:37.645Z,63.80
2023-01-06T12:22:34.736Z,63.60
2023-01-06T12:25:26.651Z,63.10
2023-01-06T12:28:22.356Z,63.30
2023-01-06T12:31:15.967Z,63.40
2023-01-06T12:34:11.776Z,63.50
2023-01-06T12:37:08.127Z,63.30
2023-01-06T12:40:03.413Z,62.80
2023-01-06T12:42:57.631Z,63.50
2023-01-06T12:45:57.768Z,63.50
2023-01-06T12:48:51.751Z,62.90
2023-01-06T12:51:44.209Z,62.00
2023-01-06T12:54:35.603Z,63.10
2023-01-06T12:57:42.359Z,62.90
2023-01-06T13:00:42.412Z,61.70
2023-01-06T13:04:02.736Z,60.20
2023-01-06T13:07:09.785Z,61.10
2023-01-06T13:10:11.290Z,61.60
2023-01-06T13:13:22.952Z,62.40
2023-01-06T13:16:17.992Z,63.20
2023-01-06T13:19:20.950Z,63.00
2023-01-06T13:22:15.342Z,63.00
2023-01-06T13:25:24.059Z,62.60
2023-01-06T13:28:25.317Z,62.50
2023-01-06T13:31:46.519Z,61.80
2023-01-06T13:35:04.119Z,61.90
2023-01-06T13:38:04.547Z,61.90
2023-01-06T13:40:54.748Z,61.90
2023-01-06T13:43:44.883Z,61.10
2023-01-06T13:46:34.957Z,60.10
2023-01-06T13:49:23.731Z,60.10
2023-01-06T13:52:18.324Z,60.50
2023-01-06T13:55:23.562Z,60.60
2023-01-06T13:58:36.614Z,61.00
2023-01-06T14:01:34.389Z,61.20
2023-01-06T14:04:45.893Z,61.40
2023-01-06T14:07:37.524Z,61.60
2023-01-06T14:10:33.860Z,61.00
2023-01-06T14:13:24.613Z,61.40
2023-01-06T14:16:15.067Z,61.70
2023-01-06T14:19:07.714Z,61.50
2023-01-06T14:22:12.780Z,61.40
2023-01-06T14:25:04.815Z,61.40
2023-01-06T14:28:26.618Z,60.80
2023-01-06T14:31:39.837Z,60.90
2023-01-06T14:34:28.610Z,61.30
2023-01-06T14:37:19.645Z,61.20
2023-01-06T14:40:19.541Z,61.40
2023-01-06T14:43:30.348Z,61.00
2023-01-06T14:46:22.019Z,61.30
2023-01-06T14:49:18.012Z,60.90
2023-01-06T14:52:13.563Z,61.60
2023-01-06T14:55:03.365Z,61.40
2023-01-06T14:57:53.360Z,61.80
2023-01-06T15:00:47.393Z,61.70
2023-01-06T15:03:36.257Z,61.30
2023-01-06T15:06:26.186Z,61.10
2023-01-06T15:09:21.021Z,61.40
2023-01-06T15:12:23.971Z,61.30
2023-01-06T15:15:22.631Z,61.70
2023-01-06T15:18:14.525Z,61.90
2023-01-06T15:21:03.779Z,61.40
2023-01-06T15:23:53.935Z,61.50
2023-01-06T15:26:42.522Z,61.40
2023-01-06T15:29:31.019Z,60.40
2023-01-06T15:32:22.540Z,60.70
2023-01-06T15:35:14.829Z,60.10
2023-01-06T15:38:08.187Z,60.10
2023-01-06T15:40:56.843Z,60.00
2023-01-06T15:43:47.052Z,60.40
2023-01-06T15:46:41.866Z,60.10
2023-01-06T15:49:35.337Z,60.20
2023-01-06T15:52:27.250Z,60.10
2023-01-06T15:55:24.263Z,59.80
2023-01-06T15:58:21.493Z,59.80
2023-01-06T16:01:15.738Z,59.80
2023-01-06T16:04:04.499Z,59.90
2023-01-06T16:06:54.704Z,58.80
2023-01-06T16:09:43.369Z,59.60
2023-01-06T16:12:32.182Z,59.40
2023-01-06T16:15:45.208Z,59.40
2023-01-06T16:18:36.142Z,59.40
2023-01-06T16:21:28.142Z,59.30
2023-01-06T16:24:22.069Z,59.40
2023-01-06T16:27:10.760Z,59.40
2023-01-06T16:30:11.656Z,59.40
2023-01-06T16:33:01.233Z,59.40
2023-01-06T16:35:53.317Z,59.20
2023-01-06T16:38:41.902Z,59.70
2023-01-06T16:41:31.889Z,59.20
2023-01-06T16:44:20.382Z,59.50
2023-01-06T16:47:10.231Z,59.80
2023-01-06T16:50:01.922Z,59.30
2023-01-06T16:53:00.140Z,59.20
2023-01-06T16:55:52.971Z,59.20
2023-01-06T16:58:42.902Z,59.30
2023-01-06T17:01:37.074Z,59.30
2023-01-06T17:04:25.702Z,59.00
2023-01-06T17:07:16.032Z,58.10
2023-01-06T17:10:09.059Z,57.90
2023-01-06T17:13:17.617Z,57.20
2023-01-06T17:16:16.442Z,56.10
2023-01-06T17:19:15.289Z,55.80
2023-01-06T17:22:15.302Z,55.50
2023-01-06T17:25:12.696Z,55.10
2023-01-06T17:28:02.447Z,54.70
2023-01-06T17:30:52.092Z,53.80
2023-01-06T17:33:42.079Z,53.60
2023-01-06T17:36:37.824Z,53.90
2023-01-06T17:39:29.875Z,53.80
2023-01-06T17:42:29.079Z,53.70
2023-01-06T17:45:24.580Z,53.80
2023-01-06T17:48:14.460Z,53.20
2023-01-06T17:51:04.662Z,52.50
2023-01-06T17:54:10.995Z,52.40
2023-01-06T17:57:00.736Z,52.90
2023-01-06T17:59:54.190Z,53.60
2023-01-06T18:02:47.815Z,55.40
2023-01-06T18:06:09.643Z,56.70
2023-01-06T18:09:09.089Z,58.20
2023-01-06T18:12:03.110Z,59.50
2023-01-06T18:14:51.764Z,61.10
2023-01-06T18:17:40.337Z,62.10
2023-01-06T18:20:29.446Z,62.30
2023-01-06T18:23:22.439Z,61.90
2023-01-06T18:26:33.768Z,61.90
2023-01-06T18:29:25.896Z,62.20
2023-01-06T18:32:27.210Z,61.60
2023-01-06T18:35:18.158Z,60.90
2023-01-06T18:38:06.785Z,60.10
2023-01-06T18:40:56.860Z,59.20
2023-01-06T18:43:45.387Z,58.90
2023-01-06T18:46:35.384Z,59.00
2023-01-06T18:49:32.542Z,58.10
2023-01-06T18:52:43.035Z,57.60
2023-01-06T18:55:37.399Z,57.30
2023-01-06T18:58:46.299Z,57.30
2023-01-06T19:01:41.294Z,57.80
2023-01-06T19:04:31.470Z,58.80
2023-01-06T19:07:28.672Z,59.20
2023-01-06T19:10:26.537Z,58.90
2023-01-06T19:13:20.209Z,58.90
2023-01-06T19:16:29.513Z,58.20
2023-01-06T19:19:26.296Z,58.20
2023-01-06T19:22:22.776Z,57.90
2023-01-06T19:25:25.174Z,57.80
2023-01-06T19:28:17.999Z,57.10
2023-01-06T19:31:08.511Z,56.90
2023-01-06T19:34:00.992Z,56.90
2023-01-06T19:36:50.856Z,57.00
2023-01-06T19:39:41.960Z,57.30
2023-01-06T19:42:30.481Z,56.90
2023-01-06T19:45:29.488Z,56.70
2023-01-06T19:48:23.098Z,56.70
2023-01-06T19:51:25.996Z,56.10
2023-01-06T19:54:26.213Z,56.20
2023-01-06T19:57:24.761Z,56.00
2023-01-06T20:00:25.916Z,56.00
2023-01-06T20:03:27.810Z,56.80
2023-01-06T20:06:18.241Z,57.10
2023-01-06T20:09:06.792Z,56.90
2023-01-06T20:11:55.348Z,56.70
2023-01-06T20:14:44.008Z,56.80
2023-01-06T20:17:32.516Z,56.40
2023-01-06T20:20:21.113Z,56.00
2023-01-06T20:23:11.221Z,56.10
2023-01-06T20:25:59.872Z,55.70
2023-01-06T20:28:48.445Z,54.60
2023-01-06T20:31:37.177Z,54.40
2023-01-06T20:34:25.797Z,54.10
2023-01-06T20:37:14.282Z,54.00
2023-01-06T20:40:04.389Z,54.60
2023-01-06T20:42:52.937Z,55.20
2023-01-06T20:45:41.627Z,55.60
2023-01-06T20:48:30.147Z,55.10
2023-01-06T20:51:18.616Z,54.80
2023-01-06T20:54:07.627Z,54.80
2023-01-06T20:56:57.949Z,55.10
2023-01-06T20:59:46.451Z,56.20
2023-01-06T21:02:35.272Z,57.50
2023-01-06T21:05:23.933Z,57.70
2023-01-06T21:08:12.466Z,58.00
2023-01-06T21:11:01.220Z,57.20
2023-01-06T21:13:51.132Z,56.30
2023-01-06T21:16:39.728Z,56.10
2023-01-06T21:19:28.363Z,57.50
2023-01-06T21:22:16.915Z,58.60
2023-01-06T21:25:06.007Z,58.50
2023-01-06T21:27:54.577Z,58.40
2023-01-06T21:30:44.497Z,58.50
2023-01-06T21:33:33.052Z,58.60
2023-01-06T21:36:21.659Z,58.40
2023-01-06T21:39:10.590Z,58.40
2023-01-06T21:42:16.768Z,58.30
2023-01-06T21:45:06.812Z,58.30
2023-01-06T21:47:56.757Z,58.40
2023-01-06T21:50:46.610Z,58.40
2023-01-06T21:53:35.795Z,58.20
2023-01-06T21:56:24.945Z,57.40
2023-01-06T21:59:14.148Z,56.70
2023-01-06T22:02:03.015Z,55.50
2023-01-06T22:04:53.082Z,54.40
2023-01-06T22:07:45.314Z,54.40
2023-01-06T22:10:34.287Z,53.90
2023-01-06T22:13:23.897Z,53.30
2023-01-06T22:16:13.062Z,54.70
2023-01-06T22:19:01.721Z,55.60
2023-01-06T22:21:51.899Z,55.70
2023-01-06T22:24:43.428Z,56.00
2023-01-06T22:27:31.981Z,57.60
2023-01-06T22:30:20.554Z,57.40
2023-01-06T22:33:09.036Z,57.40
2023-01-06T22:35:58.139Z,58.10
2023-01-06T22:38:48.001Z,58.20
2023-01-06T22:41:36.588Z,58.80
2023-01-06T22:44:25.135Z,58.30
2023-01-06T22:47:13.694Z,58.20
2023-01-06T22:50:02.679Z,58.20
2023-01-06T22:52:51.381Z,58.20
2023-01-06T22:55:41.310Z,56.50
2023-01-06T22:58:30.593Z,55.10
2023-01-06T23:01:19.238Z,54.10
2023-01-06T23:04:07.933Z,53.10
2023-01-06T23:06:56.453Z,52.60
2023-01-06T23:09:45.123Z,52.70
2023-01-06T23:12:36.610Z,52.10
2023-01-06T23:15:27.505Z,51.90
2023-01-06T23:18:15.993Z,51.70
2023-01-06T23:21:07.424Z,52.00
2023-01-06T23:23:56.672Z,52.10
2023-01-06T23:26:46.801Z,52.30
2023-01-06T23:29:36.701Z,52.60
2023-01-06T23:32:25.251Z,52.90
2023-01-06T23:35:13.818Z,52.20
2023-01-06T23:38:03.605Z,52.30
2023-01-06T23:40:52.234Z,51.80
2023-01-06T23:43:41.611Z,51.50
2023-01-06T23:46:34.676Z,51.50
2023-01-06T23:49:23.267Z,51.60
2023-01-06T23:52:11.752Z,52.00
2023-01-06T23:55:00.327Z,52.40
2023-01-06T23:57:48.861Z,52.30
